sensor_id;sensor_type;location;lat;lon;timestamp;P1;durP1;ratioP1;P2;durP2;ratioP2
26620;SDS011;14253;44.840;10.444;2022-11-20T00:01:16;59.88;;;28.63;;
26620;SDS011;14253;44.840;10.444;2022-11-20T00:03:46;60.25;;;27.58;;
26620;SDS011;14253;44.840;10.444;2022-11-20T00:06:14;64.43;;;29.38;;
26620;SDS011;14253;44.840;10.444;2022-11-20T00:08:41;76.72;;;33.30;;
26620;SDS011;14253;44.840;10.444;2022-11-20T00:11:09;61.25;;;29.08;;
26620;SDS011;14253;44.840;10.444;2022-11-20T00:13:41;55.92;;;26.67;;
26620;SDS011;14253;44.840;10.444;2022-11-20T00:16:13;58.25;;;27.25;;
26620;SDS011;14253;44.840;10.444;2022-11-20T00:18:40;60.85;;;28.38;;
26620;SDS011;14253;44.840;10.444;2022-11-20T00:21:09;57.08;;;27.23;;
26620;SDS011;14253;44.840;10.444;2022-11-20T00:23:40;55.15;;;26.70;;
26620;SDS011;14253;44.840;10.444;2022-11-20T00:26:07;58.15;;;27.27;;
26620;SDS011;14253;44.840;10.444;2022-11-20T00:28:35;55.72;;;27.40;;
26620;SDS011;14253;44.840;10.444;2022-11-20T00:31:12;65.05;;;27.75;;
26620;SDS011;14253;44.840;10.444;2022-11-20T00:33:40;61.03;;;28.27;;
26620;SDS011;14253;44.840;10.444;2022-11-20T00:36:14;63.55;;;29.17;;
26620;SDS011;14253;44.840;10.444;2022-11-20T00:38:45;62.00;;;28.25;;
26620;SDS011;14253;44.840;10.444;2022-11-20T00:41:12;58.85;;;26.40;;
26620;SDS011;14253;44.840;10.444;2022-11-20T00:43:39;64.00;;;28.45;;
26620;SDS011;14253;44.840;10.444;2022-11-20T00:46:16;64.72;;;29.17;;
26620;SDS011;14253;44.840;10.444;2022-11-20T00:48:44;60.13;;;27.23;;
26620;SDS011;14253;44.840;10.444;2022-11-20T00:51:11;58.33;;;27.52;;
26620;SDS011;14253;44.840;10.444;2022-11-20T00:53:39;60.90;;;28.40;;
26620;SDS011;14253;44.840;10.444;2022-11-20T00:56:06;54.67;;;26.35;;
26620;SDS011;14253;44.840;10.444;2022-11-20T00:58:36;59.20;;;29.58;;
26620;SDS011;14253;44.840;10.444;2022-11-20T01:01:08;58.80;;;28.92;;
26620;SDS011;14253;44.840;10.444;2022-11-20T01:03:40;62.35;;;27.85;;
26620;SDS011;14253;44.840;10.444;2022-11-20T01:06:27;60.60;;;28.63;;
26620;SDS011;14253;44.840;10.444;2022-11-20T01:08:56;59.95;;;28.83;;
26620;SDS011;14253;44.840;10.444;2022-11-20T01:11:26;61.97;;;28.92;;
26620;SDS011;14253;44.840;10.444;2022-11-20T01:13:54;56.85;;;28.13;;
26620;SDS011;14253;44.840;10.444;2022-11-20T01:16:22;67.03;;;31.00;;
26620;SDS011;14253;44.840;10.444;2022-11-20T01:18:54;57.88;;;27.77;;
26620;SDS011;14253;44.840;10.444;2022-11-20T01:21:23;57.92;;;28.00;;
26620;SDS011;14253;44.840;10.444;2022-11-20T01:23:53;57.58;;;26.77;;
26620;SDS011;14253;44.840;10.444;2022-11-20T01:26:23;65.60;;;27.85;;
26620;SDS011;14253;44.840;10.444;2022-11-20T01:28:53;64.93;;;28.42;;
26620;SDS011;14253;44.840;10.444;2022-11-20T01:31:21;60.60;;;29.15;;
26620;SDS011;14253;44.840;10.444;2022-11-20T01:33:51;60.78;;;26.88;;
26620;SDS011;14253;44.840;10.444;2022-11-20T01:36:20;57.10;;;25.55;;
26620;SDS011;14253;44.840;10.444;2022-11-20T01:38:47;54.78;;;25.77;;
26620;SDS011;14253;44.840;10.444;2022-11-20T01:41:16;52.03;;;25.38;;
26620;SDS011;14253;44.840;10.444;2022-11-20T01:44:01;62.42;;;26.58;;
26620;SDS011;14253;44.840;10.444;2022-11-20T01:46:29;55.08;;;27.17;;
26620;SDS011;14253;44.840;10.444;2022-11-20T01:49:07;63.05;;;28.50;;
26620;SDS011;14253;44.840;10.444;2022-11-20T01:51:43;63.60;;;28.20;;
26620;SDS011;14253;44.840;10.444;2022-11-20T01:54:13;64.18;;;28.23;;
26620;SDS011;14253;44.840;10.444;2022-11-20T01:56:44;59.20;;;28.00;;
26620;SDS011;14253;44.840;10.444;2022-11-20T01:59:13;60.50;;;27.95;;
26620;SDS011;14253;44.840;10.444;2022-11-20T02:01:43;64.47;;;28.42;;
26620;SDS011;14253;44.840;10.444;2022-11-20T02:04:09;68.57;;;31.85;;
26620;SDS011;14253;44.840;10.444;2022-11-20T02:06:38;62.97;;;28.80;;
26620;SDS011;14253;44.840;10.444;2022-11-20T02:09:09;60.30;;;27.95;;
26620;SDS011;14253;44.840;10.444;2022-11-20T02:11:35;59.05;;;28.15;;
26620;SDS011;14253;44.840;10.444;2022-11-20T02:14:01;59.05;;;29.23;;
26620;SDS011;14253;44.840;10.444;2022-11-20T02:16:33;60.35;;;27.17;;
26620;SDS011;14253;44.840;10.444;2022-11-20T02:19:02;66.70;;;31.38;;
26620;SDS011;14253;44.840;10.444;2022-11-20T02:24:19;61.65;;;28.63;;
26620;SDS011;14253;44.840;10.444;2022-11-20T02:26:51;70.07;;;30.05;;
26620;SDS011;14253;44.840;10.444;2022-11-20T02:29:34;62.83;;;26.95;;
26620;SDS011;14253;44.840;10.444;2022-11-20T02:32:03;62.05;;;27.70;;
26620;SDS011;14253;44.840;10.444;2022-11-20T02:34:30;60.20;;;27.33;;
26620;SDS011;14253;44.840;10.444;2022-11-20T02:36:56;68.22;;;28.48;;
26620;SDS011;14253;44.840;10.444;2022-11-20T02:39:24;57.42;;;28.80;;
26620;SDS011;14253;44.840;10.444;2022-11-20T02:41:53;63.15;;;28.52;;
26620;SDS011;14253;44.840;10.444;2022-11-20T02:44:21;63.08;;;28.67;;
26620;SDS011;14253;44.840;10.444;2022-11-20T02:46:47;56.15;;;26.10;;
26620;SDS011;14253;44.840;10.444;2022-11-20T02:49:13;66.80;;;29.38;;
26620;SDS011;14253;44.840;10.444;2022-11-20T02:51:39;64.32;;;27.70;;
26620;SDS011;14253;44.840;10.444;2022-11-20T02:54:05;71.78;;;29.98;;
26620;SDS011;14253;44.840;10.444;2022-11-20T02:56:30;70.93;;;30.92;;
26620;SDS011;14253;44.840;10.444;2022-11-20T02:58:57;69.88;;;30.60;;
26620;SDS011;14253;44.840;10.444;2022-11-20T03:01:23;73.75;;;30.85;;
26620;SDS011;14253;44.840;10.444;2022-11-20T03:03:49;65.65;;;29.85;;
26620;SDS011;14253;44.840;10.444;2022-11-20T03:06:15;65.15;;;29.23;;
26620;SDS011;14253;44.840;10.444;2022-11-20T03:08:42;69.82;;;30.90;;
26620;SDS011;14253;44.840;10.444;2022-11-20T03:11:08;68.13;;;30.75;;
26620;SDS011;14253;44.840;10.444;2022-11-20T03:13:34;60.88;;;29.17;;
26620;SDS011;14253;44.840;10.444;2022-11-20T03:16:07;57.15;;;28.90;;
26620;SDS011;14253;44.840;10.444;2022-11-20T03:18:39;63.70;;;29.88;;
26620;SDS011;14253;44.840;10.444;2022-11-20T03:21:06;56.67;;;26.73;;
26620;SDS011;14253;44.840;10.444;2022-11-20T03:23:33;61.80;;;29.10;;
26620;SDS011;14253;44.840;10.444;2022-11-20T03:26:13;64.60;;;28.40;;
26620;SDS011;14253;44.840;10.444;2022-11-20T03:28:48;59.55;;;28.98;;
26620;SDS011;14253;44.840;10.444;2022-11-20T03:31:23;61.30;;;27.60;;
26620;SDS011;14253;44.840;10.444;2022-11-20T03:33:52;58.45;;;27.15;;
26620;SDS011;14253;44.840;10.444;2022-11-20T03:36:20;54.00;;;27.05;;
26620;SDS011;14253;44.840;10.444;2022-11-20T03:38:48;60.10;;;27.25;;
26620;SDS011;14253;44.840;10.444;2022-11-20T03:41:16;55.17;;;26.08;;
26620;SDS011;14253;44.840;10.444;2022-11-20T03:43:46;53.88;;;25.67;;
26620;SDS011;14253;44.840;10.444;2022-11-20T03:46:16;53.05;;;25.80;;
26620;SDS011;14253;44.840;10.444;2022-11-20T03:48:42;49.83;;;22.77;;
26620;SDS011;14253;44.840;10.444;2022-11-20T03:53:39;141.15;;;23.40;;
26620;SDS011;14253;44.840;10.444;2022-11-20T03:56:07;46.88;;;21.98;;
26620;SDS011;14253;44.840;10.444;2022-11-20T03:58:34;38.47;;;21.13;;
26620;SDS011;14253;44.840;10.444;2022-11-20T04:01:20;34.47;;;20.63;;
26620;SDS011;14253;44.840;10.444;2022-11-20T04:04:41;29.83;;;18.63;;
26620;SDS011;14253;44.840;10.444;2022-11-20T04:07:37;28.55;;;17.67;;
26620;SDS011;14253;44.840;10.444;2022-11-20T04:10:03;37.17;;;19.73;;
26620;SDS011;14253;44.840;10.444;2022-11-20T04:12:31;37.50;;;20.50;;
26620;SDS011;14253;44.840;10.444;2022-11-20T04:14:58;41.20;;;21.40;;
26620;SDS011;14253;44.840;10.444;2022-11-20T04:17:24;47.13;;;22.90;;
26620;SDS011;14253;44.840;10.444;2022-11-20T04:19:50;41.50;;;21.02;;
26620;SDS011;14253;44.840;10.444;2022-11-20T04:22:16;41.03;;;21.92;;
26620;SDS011;14253;44.840;10.444;2022-11-20T04:24:42;39.97;;;20.67;;
26620;SDS011;14253;44.840;10.444;2022-11-20T04:27:08;41.13;;;23.27;;
26620;SDS011;14253;44.840;10.444;2022-11-20T04:29:34;37.83;;;20.92;;
26620;SDS011;14253;44.840;10.444;2022-11-20T04:32:00;42.15;;;21.92;;
26620;SDS011;14253;44.840;10.444;2022-11-20T04:34:26;35.60;;;20.95;;
26620;SDS011;14253;44.840;10.444;2022-11-20T04:36:52;32.80;;;19.80;;
26620;SDS011;14253;44.840;10.444;2022-11-20T04:39:18;64.28;;;22.08;;
26620;SDS011;14253;44.840;10.444;2022-11-20T04:41:44;47.75;;;22.63;;
26620;SDS011;14253;44.840;10.444;2022-11-20T04:44:09;43.28;;;20.65;;
26620;SDS011;14253;44.840;10.444;2022-11-20T04:46:37;40.55;;;21.75;;
26620;SDS011;14253;44.840;10.444;2022-11-20T04:49:05;35.30;;;19.60;;
26620;SDS011;14253;44.840;10.444;2022-11-20T04:51:32;34.15;;;18.50;;
26620;SDS011;14253;44.840;10.444;2022-11-20T04:53:58;31.63;;;17.90;;
26620;SDS011;14253;44.840;10.444;2022-11-20T04:56:25;37.53;;;19.30;;
26620;SDS011;14253;44.840;10.444;2022-11-20T04:58:51;31.27;;;18.13;;
26620;SDS011;14253;44.840;10.444;2022-11-20T05:01:23;32.58;;;18.77;;
26620;SDS011;14253;44.840;10.444;2022-11-20T05:03:50;31.15;;;17.05;;
26620;SDS011;14253;44.840;10.444;2022-11-20T05:06:17;29.60;;;16.48;;
26620;SDS011;14253;44.840;10.444;2022-11-20T05:08:44;27.40;;;16.13;;
26620;SDS011;14253;44.840;10.444;2022-11-20T05:11:12;29.00;;;16.67;;
26620;SDS011;14253;44.840;10.444;2022-11-20T05:13:39;25.42;;;16.27;;
26620;SDS011;14253;44.840;10.444;2022-11-20T05:16:15;27.45;;;15.45;;
26620;SDS011;14253;44.840;10.444;2022-11-20T05:18:43;31.55;;;16.10;;
26620;SDS011;14253;44.840;10.444;2022-11-20T05:21:09;33.45;;;17.33;;
26620;SDS011;14253;44.840;10.444;2022-11-20T05:23:36;26.70;;;16.10;;
26620;SDS011;14253;44.840;10.444;2022-11-20T05:26:03;31.55;;;17.00;;
26620;SDS011;14253;44.840;10.444;2022-11-20T05:28:30;27.25;;;15.10;;
26620;SDS011;14253;44.840;10.444;2022-11-20T05:31:03;25.02;;;15.07;;
26620;SDS011;14253;44.840;10.444;2022-11-20T05:33:31;25.73;;;15.43;;
26620;SDS011;14253;44.840;10.444;2022-11-20T05:35:58;24.42;;;14.25;;
26620;SDS011;14253;44.840;10.444;2022-11-20T05:38:24;23.35;;;13.98;;
26620;SDS011;14253;44.840;10.444;2022-11-20T05:40:50;28.65;;;14.88;;
26620;SDS011;14253;44.840;10.444;2022-11-20T05:43:16;22.88;;;14.60;;
26620;SDS011;14253;44.840;10.444;2022-11-20T05:45:41;23.38;;;13.82;;
26620;SDS011;14253;44.840;10.444;2022-11-20T05:48:07;24.15;;;14.25;;
26620;SDS011;14253;44.840;10.444;2022-11-20T05:50:33;24.45;;;13.68;;
26620;SDS011;14253;44.840;10.444;2022-11-20T05:52:59;39.28;;;13.73;;
26620;SDS011;14253;44.840;10.444;2022-11-20T05:55:26;30.70;;;11.95;;
26620;SDS011;14253;44.840;10.444;2022-11-20T05:57:53;36.15;;;12.45;;
26620;SDS011;14253;44.840;10.444;2022-11-20T06:00:20;15.90;;;10.18;;
26620;SDS011;14253;44.840;10.444;2022-11-20T06:02:46;14.40;;;9.65;;
26620;SDS011;14253;44.840;10.444;2022-11-20T06:05:12;12.45;;;9.77;;
26620;SDS011;14253;44.840;10.444;2022-11-20T06:07:38;21.20;;;10.98;;
26620;SDS011;14253;44.840;10.444;2022-11-20T06:10:04;35.63;;;12.00;;
26620;SDS011;14253;44.840;10.444;2022-11-20T06:12:31;15.68;;;10.38;;
26620;SDS011;14253;44.840;10.444;2022-11-20T06:14:58;16.08;;;11.23;;
26620;SDS011;14253;44.840;10.444;2022-11-20T06:17:25;17.60;;;11.32;;
26620;SDS011;14253;44.840;10.444;2022-11-20T06:19:51;16.08;;;11.88;;
26620;SDS011;14253;44.840;10.444;2022-11-20T06:22:17;15.75;;;11.65;;
26620;SDS011;14253;44.840;10.444;2022-11-20T06:24:43;16.23;;;11.75;;
26620;SDS011;14253;44.840;10.444;2022-11-20T06:27:09;18.85;;;11.93;;
26620;SDS011;14253;44.840;10.444;2022-11-20T06:29:36;18.33;;;11.35;;
26620;SDS011;14253;44.840;10.444;2022-11-20T06:32:03;21.73;;;11.98;;
26620;SDS011;14253;44.840;10.444;2022-11-20T06:34:30;17.23;;;12.23;;
26620;SDS011;14253;44.840;10.444;2022-11-20T06:36:56;18.17;;;12.05;;
26620;SDS011;14253;44.840;10.444;2022-11-20T06:39:22;23.00;;;11.65;;
26620;SDS011;14253;44.840;10.444;2022-11-20T06:41:49;18.20;;;11.48;;
26620;SDS011;14253;44.840;10.444;2022-11-20T06:44:15;23.73;;;13.00;;
26620;SDS011;14253;44.840;10.444;2022-11-20T06:46:41;19.88;;;11.80;;
26620;SDS011;14253;44.840;10.444;2022-11-20T06:49:06;19.85;;;11.98;;
26620;SDS011;14253;44.840;10.444;2022-11-20T06:51:32;25.20;;;12.55;;
26620;SDS011;14253;44.840;10.444;2022-11-20T06:54:00;23.13;;;14.25;;
26620;SDS011;14253;44.840;10.444;2022-11-20T06:56:26;19.52;;;12.38;;
26620;SDS011;14253;44.840;10.444;2022-11-20T06:58:53;17.95;;;12.25;;
26620;SDS011;14253;44.840;10.444;2022-11-20T07:01:19;18.25;;;12.13;;
26620;SDS011;14253;44.840;10.444;2022-11-20T07:03:44;21.30;;;12.57;;
26620;SDS011;14253;44.840;10.444;2022-11-20T07:06:13;21.85;;;12.75;;
26620;SDS011;14253;44.840;10.444;2022-11-20T07:08:39;21.13;;;13.32;;
26620;SDS011;14253;44.840;10.444;2022-11-20T07:11:06;23.70;;;14.63;;
26620;SDS011;14253;44.840;10.444;2022-11-20T07:13:33;27.65;;;15.45;;
26620;SDS011;14253;44.840;10.444;2022-11-20T07:16:00;16.77;;;11.07;;
26620;SDS011;14253;44.840;10.444;2022-11-20T07:18:28;15.60;;;10.70;;
26620;SDS011;14253;44.840;10.444;2022-11-20T07:20:54;16.48;;;9.30;;
26620;SDS011;14253;44.840;10.444;2022-11-20T07:23:20;19.13;;;8.90;;
26620;SDS011;14253;44.840;10.444;2022-11-20T07:25:46;22.35;;;8.80;;
26620;SDS011;14253;44.840;10.444;2022-11-20T07:28:12;21.75;;;9.95;;
26620;SDS011;14253;44.840;10.444;2022-11-20T07:30:38;25.42;;;9.52;;
26620;SDS011;14253;44.840;10.444;2022-11-20T07:33:05;26.45;;;11.07;;
26620;SDS011;14253;44.840;10.444;2022-11-20T07:35:31;47.17;;;12.70;;
26620;SDS011;14253;44.840;10.444;2022-11-20T07:37:57;56.75;;;13.60;;
26620;SDS011;14253;44.840;10.444;2022-11-20T07:40:23;68.78;;;15.20;;
26620;SDS011;14253;44.840;10.444;2022-11-20T07:42:50;92.15;;;18.08;;
26620;SDS011;14253;44.840;10.444;2022-11-20T07:45:19;72.03;;;20.65;;
26620;SDS011;14253;44.840;10.444;2022-11-20T07:47:47;76.63;;;23.50;;
26620;SDS011;14253;44.840;10.444;2022-11-20T07:50:14;73.55;;;24.67;;
26620;SDS011;14253;44.840;10.444;2022-11-20T07:52:40;52.72;;;22.92;;
26620;SDS011;14253;44.840;10.444;2022-11-20T07:55:06;44.58;;;23.58;;
26620;SDS011;14253;44.840;10.444;2022-11-20T07:57:34;65.88;;;26.30;;
26620;SDS011;14253;44.840;10.444;2022-11-20T08:00:00;53.95;;;26.88;;
26620;SDS011;14253;44.840;10.444;2022-11-20T08:02:46;58.60;;;25.77;;
26620;SDS011;14253;44.840;10.444;2022-11-20T08:05:12;56.42;;;25.38;;
26620;SDS011;14253;44.840;10.444;2022-11-20T08:07:39;58.47;;;28.10;;
26620;SDS011;14253;44.840;10.444;2022-11-20T08:10:07;60.47;;;28.90;;
26620;SDS011;14253;44.840;10.444;2022-11-20T08:12:34;67.00;;;30.92;;
26620;SDS011;14253;44.840;10.444;2022-11-20T08:15:18;59.08;;;32.28;;
26620;SDS011;14253;44.840;10.444;2022-11-20T08:17:44;65.82;;;30.83;;
26620;SDS011;14253;44.840;10.444;2022-11-20T08:20:10;67.40;;;31.40;;
26620;SDS011;14253;44.840;10.444;2022-11-20T08:22:36;62.95;;;32.72;;
26620;SDS011;14253;44.840;10.444;2022-11-20T08:25:14;63.60;;;33.00;;
26620;SDS011;14253;44.840;10.444;2022-11-20T08:27:46;61.40;;;31.90;;
26620;SDS011;14253;44.840;10.444;2022-11-20T08:30:12;66.65;;;34.80;;
26620;SDS011;14253;44.840;10.444;2022-11-20T08:32:39;66.38;;;32.50;;
26620;SDS011;14253;44.840;10.444;2022-11-20T08:35:05;65.68;;;33.38;;
26620;SDS011;14253;44.840;10.444;2022-11-20T08:37:31;70.07;;;34.55;;
26620;SDS011;14253;44.840;10.444;2022-11-20T08:39:57;66.32;;;33.78;;
26620;SDS011;14253;44.840;10.444;2022-11-20T08:42:23;71.28;;;35.38;;
26620;SDS011;14253;44.840;10.444;2022-11-20T08:44:49;66.22;;;34.13;;
26620;SDS011;14253;44.840;10.444;2022-11-20T08:47:15;66.05;;;35.13;;
26620;SDS011;14253;44.840;10.444;2022-11-20T08:49:41;67.93;;;34.72;;
26620;SDS011;14253;44.840;10.444;2022-11-20T08:52:07;64.00;;;33.80;;
26620;SDS011;14253;44.840;10.444;2022-11-20T08:54:33;65.55;;;32.33;;
26620;SDS011;14253;44.840;10.444;2022-11-20T08:56:59;64.10;;;33.63;;
26620;SDS011;14253;44.840;10.444;2022-11-20T08:59:25;64.32;;;31.67;;
26620;SDS011;14253;44.840;10.444;2022-11-20T09:01:51;73.97;;;35.15;;
26620;SDS011;14253;44.840;10.444;2022-11-20T09:04:17;63.38;;;33.50;;
26620;SDS011;14253;44.840;10.444;2022-11-20T09:06:43;67.25;;;34.65;;
26620;SDS011;14253;44.840;10.444;2022-11-20T09:09:09;72.80;;;35.53;;
26620;SDS011;14253;44.840;10.444;2022-11-20T09:11:36;71.47;;;35.90;;
26620;SDS011;14253;44.840;10.444;2022-11-20T09:14:02;71.10;;;35.70;;
26620;SDS011;14253;44.840;10.444;2022-11-20T09:16:29;74.72;;;37.22;;
26620;SDS011;14253;44.840;10.444;2022-11-20T09:18:56;70.35;;;38.70;;
26620;SDS011;14253;44.840;10.444;2022-11-20T09:21:22;75.70;;;38.92;;
26620;SDS011;14253;44.840;10.444;2022-11-20T09:23:49;80.18;;;39.50;;
26620;SDS011;14253;44.840;10.444;2022-11-20T09:26:16;73.25;;;36.53;;
26620;SDS011;14253;44.840;10.444;2022-11-20T09:28:42;77.07;;;36.85;;
26620;SDS011;14253;44.840;10.444;2022-11-20T09:31:09;71.00;;;37.30;;
26620;SDS011;14253;44.840;10.444;2022-11-20T09:33:45;77.70;;;37.97;;
26620;SDS011;14253;44.840;10.444;2022-11-20T09:36:11;86.45;;;39.70;;
26620;SDS011;14253;44.840;10.444;2022-11-20T09:38:37;83.03;;;38.28;;
26620;SDS011;14253;44.840;10.444;2022-11-20T09:41:03;81.60;;;37.55;;
26620;SDS011;14253;44.840;10.444;2022-11-20T09:43:35;112.57;;;37.53;;
26620;SDS011;14253;44.840;10.444;2022-11-20T09:56:46;78.45;;;35.83;;
26620;SDS011;14253;44.840;10.444;2022-11-20T10:01:54;86.65;;;37.72;;
26620;SDS011;14253;44.840;10.444;2022-11-20T10:04:22;67.88;;;35.05;;
26620;SDS011;14253;44.840;10.444;2022-11-20T10:07:06;85.10;;;35.10;;
26620;SDS011;14253;44.840;10.444;2022-11-20T10:09:42;64.35;;;31.85;;
26620;SDS011;14253;44.840;10.444;2022-11-20T10:12:31;69.93;;;34.58;;
26620;SDS011;14253;44.840;10.444;2022-11-20T10:23:24;94.03;;;36.45;;
26620;SDS011;14253;44.840;10.444;2022-11-20T10:28:34;83.25;;;34.80;;
26620;SDS011;14253;44.840;10.444;2022-11-20T10:31:30;81.28;;;35.35;;
26620;SDS011;14253;44.840;10.444;2022-11-20T10:34:06;82.57;;;38.47;;
26620;SDS011;14253;44.840;10.444;2022-11-20T10:36:44;78.82;;;36.58;;
26620;SDS011;14253;44.840;10.444;2022-11-20T10:41:56;79.78;;;35.95;;
26620;SDS011;14253;44.840;10.444;2022-11-20T10:44:26;80.13;;;37.10;;
26620;SDS011;14253;44.840;10.444;2022-11-20T10:47:13;75.10;;;38.97;;
26620;SDS011;14253;44.840;10.444;2022-11-20T10:49:46;74.05;;;35.63;;
26620;SDS011;14253;44.840;10.444;2022-11-20T11:00:14;72.63;;;34.17;;
26620;SDS011;14253;44.840;10.444;2022-11-20T11:02:46;69.70;;;34.40;;
26620;SDS011;14253;44.840;10.444;2022-11-20T11:07:55;61.38;;;32.05;;
26620;SDS011;14253;44.840;10.444;2022-11-20T11:10:31;61.20;;;32.80;;
26620;SDS011;14253;44.840;10.444;2022-11-20T11:13:18;57.20;;;32.20;;
26620;SDS011;14253;44.840;10.444;2022-11-20T11:15:49;57.75;;;30.13;;
26620;SDS011;14253;44.840;10.444;2022-11-20T11:18:50;64.30;;;31.63;;
26620;SDS011;14253;44.840;10.444;2022-11-20T11:21:09;67.80;;;33.40;;
26620;SDS011;14253;44.840;10.444;2022-11-20T11:23:36;61.90;;;34.33;;
26620;SDS011;14253;44.840;10.444;2022-11-20T11:26:40;57.00;;;31.58;;
26620;SDS011;14253;44.840;10.444;2022-11-20T11:29:01;56.15;;;30.40;;
26620;SDS011;14253;44.840;10.444;2022-11-20T11:31:33;53.35;;;29.27;;
26620;SDS011;14253;44.840;10.444;2022-11-20T11:36:31;55.90;;;29.05;;
26620;SDS011;14253;44.840;10.444;2022-11-20T11:39:02;54.78;;;28.75;;
26620;SDS011;14253;44.840;10.444;2022-11-20T11:41:31;58.28;;;30.25;;
26620;SDS011;14253;44.840;10.444;2022-11-20T11:44:18;52.67;;;30.10;;
26620;SDS011;14253;44.840;10.444;2022-11-20T11:47:05;58.03;;;29.20;;
26620;SDS011;14253;44.840;10.444;2022-11-20T11:49:36;55.03;;;29.60;;
26620;SDS011;14253;44.840;10.444;2022-11-20T11:54:59;59.33;;;30.92;;
26620;SDS011;14253;44.840;10.444;2022-11-20T11:57:49;58.25;;;30.17;;
26620;SDS011;14253;44.840;10.444;2022-11-20T12:00:36;56.80;;;31.05;;
26620;SDS011;14253;44.840;10.444;2022-11-20T12:03:10;52.97;;;29.30;;
26620;SDS011;14253;44.840;10.444;2022-11-20T12:05:42;63.53;;;31.90;;
26620;SDS011;14253;44.840;10.444;2022-11-20T12:11:03;54.33;;;29.70;;
26620;SDS011;14253;44.840;10.444;2022-11-20T12:15:59;55.03;;;30.23;;
26620;SDS011;14253;44.840;10.444;2022-11-20T12:18:28;58.50;;;31.02;;
26620;SDS011;14253;44.840;10.444;2022-11-20T12:26:43;57.67;;;29.85;;
26620;SDS011;14253;44.840;10.444;2022-11-20T12:29:35;60.85;;;31.88;;
26620;SDS011;14253;44.840;10.444;2022-11-20T12:33:22;55.15;;;29.65;;
26620;SDS011;14253;44.840;10.444;2022-11-20T12:35:38;56.35;;;30.77;;
26620;SDS011;14253;44.840;10.444;2022-11-20T12:41:20;46.95;;;27.92;;
26620;SDS011;14253;44.840;10.444;2022-11-20T12:53:25;55.95;;;29.95;;
26620;SDS011;14253;44.840;10.444;2022-11-20T13:01:45;57.03;;;29.80;;
26620;SDS011;14253;44.840;10.444;2022-11-20T13:04:30;56.85;;;30.92;;
26620;SDS011;14253;44.840;10.444;2022-11-20T13:07:02;61.28;;;33.15;;
26620;SDS011;14253;44.840;10.444;2022-11-20T13:09:43;56.60;;;31.38;;
26620;SDS011;14253;44.840;10.444;2022-11-20T13:17:41;60.00;;;31.60;;
26620;SDS011;14253;44.840;10.444;2022-11-20T13:20:23;56.67;;;32.15;;
26620;SDS011;14253;44.840;10.444;2022-11-20T13:22:50;56.22;;;30.55;;
26620;SDS011;14253;44.840;10.444;2022-11-20T13:25:32;57.55;;;31.10;;
26620;SDS011;14253;44.840;10.444;2022-11-20T13:30:48;61.03;;;31.45;;
26620;SDS011;14253;44.840;10.444;2022-11-20T13:33:23;55.22;;;29.95;;
26620;SDS011;14253;44.840;10.444;2022-11-20T13:36:06;57.70;;;30.52;;
26620;SDS011;14253;44.840;10.444;2022-11-20T13:38:49;56.05;;;29.67;;
26620;SDS011;14253;44.840;10.444;2022-11-20T13:41:33;54.03;;;31.05;;
26620;SDS011;14253;44.840;10.444;2022-11-20T13:46:48;61.10;;;32.60;;
26620;SDS011;14253;44.840;10.444;2022-11-20T13:49:18;51.42;;;28.10;;
26620;SDS011;14253;44.840;10.444;2022-11-20T13:52:08;52.53;;;30.65;;
26620;SDS011;14253;44.840;10.444;2022-11-20T13:58:31;52.10;;;29.35;;
26620;SDS011;14253;44.840;10.444;2022-11-20T14:01:15;61.33;;;32.75;;
26620;SDS011;14253;44.840;10.444;2022-11-20T14:03:59;60.17;;;32.25;;
26620;SDS011;14253;44.840;10.444;2022-11-20T14:06:46;57.75;;;31.15;;
26620;SDS011;14253;44.840;10.444;2022-11-20T14:09:58;58.53;;;31.70;;
26620;SDS011;14253;44.840;10.444;2022-11-20T14:12:41;59.50;;;30.60;;
26620;SDS011;14253;44.840;10.444;2022-11-20T14:15:27;58.13;;;31.00;;
26620;SDS011;14253;44.840;10.444;2022-11-20T14:18:20;48.65;;;27.77;;
26620;SDS011;14253;44.840;10.444;2022-11-20T14:21:26;55.00;;;30.55;;
26620;SDS011;14253;44.840;10.444;2022-11-20T14:24:05;52.17;;;27.38;;
26620;SDS011;14253;44.840;10.444;2022-11-20T14:26:51;62.65;;;31.63;;
26620;SDS011;14253;44.840;10.444;2022-11-20T14:29:21;59.92;;;29.67;;
26620;SDS011;14253;44.840;10.444;2022-11-20T14:31:52;54.53;;;30.30;;
26620;SDS011;14253;44.840;10.444;2022-11-20T14:34:31;52.65;;;29.58;;
26620;SDS011;14253;44.840;10.444;2022-11-20T14:37:05;56.35;;;29.38;;
26620;SDS011;14253;44.840;10.444;2022-11-20T14:39:41;63.00;;;31.88;;
26620;SDS011;14253;44.840;10.444;2022-11-20T14:42:22;52.03;;;30.02;;
26620;SDS011;14253;44.840;10.444;2022-11-20T14:44:52;49.33;;;29.30;;
26620;SDS011;14253;44.840;10.444;2022-11-20T14:47:31;58.42;;;30.08;;
26620;SDS011;14253;44.840;10.444;2022-11-20T14:50:01;54.85;;;30.98;;
26620;SDS011;14253;44.840;10.444;2022-11-20T14:52:29;55.60;;;31.67;;
26620;SDS011;14253;44.840;10.444;2022-11-20T14:54:57;59.03;;;31.65;;
26620;SDS011;14253;44.840;10.444;2022-11-20T15:00:05;55.45;;;29.63;;
26620;SDS011;14253;44.840;10.444;2022-11-20T15:02:57;58.88;;;30.38;;
26620;SDS011;14253;44.840;10.444;2022-11-20T15:05:25;61.17;;;30.50;;
26620;SDS011;14253;44.840;10.444;2022-11-20T15:08:10;56.03;;;30.45;;
26620;SDS011;14253;44.840;10.444;2022-11-20T15:10:37;59.70;;;29.67;;
26620;SDS011;14253;44.840;10.444;2022-11-20T15:13:05;58.33;;;31.38;;
26620;SDS011;14253;44.840;10.444;2022-11-20T15:15:50;54.92;;;29.33;;
26620;SDS011;14253;44.840;10.444;2022-11-20T15:18:40;56.67;;;30.02;;
26620;SDS011;14253;44.840;10.444;2022-11-20T15:21:14;52.60;;;29.70;;
26620;SDS011;14253;44.840;10.444;2022-11-20T15:23:42;55.38;;;29.60;;
26620;SDS011;14253;44.840;10.444;2022-11-20T15:26:08;57.65;;;30.65;;
26620;SDS011;14253;44.840;10.444;2022-11-20T15:28:37;57.50;;;29.73;;
26620;SDS011;14253;44.840;10.444;2022-11-20T15:31:05;53.22;;;28.98;;
26620;SDS011;14253;44.840;10.444;2022-11-20T15:33:32;54.50;;;30.02;;
26620;SDS011;14253;44.840;10.444;2022-11-20T15:35:59;57.60;;;29.58;;
26620;SDS011;14253;44.840;10.444;2022-11-20T15:38:25;61.17;;;31.90;;
26620;SDS011;14253;44.840;10.444;2022-11-20T15:40:51;66.40;;;33.17;;
26620;SDS011;14253;44.840;10.444;2022-11-20T15:43:17;59.15;;;31.05;;
26620;SDS011;14253;44.840;10.444;2022-11-20T15:45:47;59.15;;;31.88;;
26620;SDS011;14253;44.840;10.444;2022-11-20T15:48:21;69.55;;;34.17;;
26620;SDS011;14253;44.840;10.444;2022-11-20T15:53:40;63.20;;;32.33;;
26620;SDS011;14253;44.840;10.444;2022-11-20T15:56:13;60.70;;;31.92;;
26620;SDS011;14253;44.840;10.444;2022-11-20T15:58:40;68.15;;;34.53;;
26620;SDS011;14253;44.840;10.444;2022-11-20T16:01:14;71.20;;;37.58;;
26620;SDS011;14253;44.840;10.444;2022-11-20T16:03:42;64.85;;;36.30;;
26620;SDS011;14253;44.840;10.444;2022-11-20T16:06:08;67.07;;;36.70;;
26620;SDS011;14253;44.840;10.444;2022-11-20T16:08:34;76.80;;;38.30;;